Station info - map view · info · telemetry · weather · raw · status · beacons · messages · bulletins · browse · moving · my account
Callsign, ship name or locator: Clear       
It is possible to search using wildcards (*?) after a prefix. Example: OH*
APRS station JA1EMF-8 - show graphs
Map loading...
Mic-E message: Off duty
Location: 38°19.64' N 141°01.04' E - locator QM08MH28BN - show map - static map
2.3 miles East bearing 84° from Rifu, Miyagi, Japan [?]
8.9 miles Northeast bearing 63° from Sendai-shi, Miyagi, Japan
72.8 miles Northeast bearing 28° from Kōriyama, Fukushima, Japan
Last position: 2018-10-18 12:39:44 EDT (2d 3h2m ago)
2018-10-19 01:39:44 JST local time at Rifu, Japan [?]
Altitude: 217 ft
Course: 119°
Device: Yaesu: FTM-100D (rig)
Last path: JA1EMF-8>SXQYV4 via WIDE1-1,qAR,JA7DNO-10 (good)
Positions stored: 12012
Packet rate: 398 seconds between packets on average during 19520 seconds.
Other SSIDs: JA1EMF-15 JA1EMF-4 JA1EMF-7
Stations near current position of JA1EMF-8 - show more
callsign distance last heard - EDT      callsign distance last heard - EDT
JA7JQZ-90.8 miles 4°2018-10-07 01:34:55 JE7YUS-91.6 miles 345°2018-10-16 03:59:17
JA7OUY-53.6 miles 35°2018-09-22 21:29:52 JG2VIQ-96.2 miles 230°2018-10-20 06:53:38
JG7IMF6.7 miles 233°2018-10-04 00:18:53 JG7IMF B6.7 miles 233°2018-10-20 05:30:20
JG7IMF-B6.7 miles 233°2018-10-20 05:30:30 JG7IMF K6.7 miles 233°2018-10-20 08:25:40
JG7IMF-K6.7 miles 233°2018-10-20 08:25:50 JG7IMF H6.7 miles 233°2018-10-20 10:01:13
JG7IMF-H6.7 miles 233°2018-10-20 10:01:23 JG7IMF-DP6.7 miles 233°2018-09-29 19:38:04
JG7IMF-N6.7 miles 233°2018-10-20 09:58:20 JG7IMF D6.7 miles 233°2018-10-09 18:49:14
JG7IMF-D6.7 miles 233°2018-10-09 18:49:24 JG7IMF S6.7 miles 233°2018-10-20 10:01:40
JG7IMF-S6.7 miles 233°2018-10-20 10:01:50 JP7YEL-I6.7 miles 223°2018-10-20 15:35:46
JH7MAG-97.2 miles 283°2018-10-14 03:21:13 JA7UDE-58.1 miles 250°2018-10-13 03:04:20
Stations which heard JA1EMF-8 directly on radio –
callsign pkts first heard - EDT last heard longest (tx => rx) longest at - EDT
JA1KWV-1 1 2018-10-18 07:10:25 2018-10-18 07:10:25 PM95RX > PM95TR 20.5 miles 149° 2018-10-18 07:10:25
JN1NVQ 5 2018-10-18 07:36:24 2018-10-18 07:52:24 PM96TI > PM96UE 11.8 miles 153° 2018-10-18 07:52:24
JE7YUQ-3 2 2018-10-18 11:48:16 2018-10-18 12:33:44 QM08MH > QM08KE 12.6 miles 211° 2018-10-18 12:33:44
JH7USP 1 2018-10-18 10:37:16 2018-10-18 10:37:16 QM07FT > QM07AX 25.6 miles 299° 2018-10-18 10:37:16
JM1YTY-3 4 2018-10-18 06:12:26 2018-10-18 06:27:21 PM95PM > PM95WC 43.6 miles 134° 2018-10-18 06:27:21
JP7DKH-1 3 2018-10-18 09:39:08 2018-10-18 12:36:44 QM08MH > QM07KF 77.5 miles 186° 2018-10-18 12:36:44
JI1EFG-10 2 2018-10-18 08:32:11 2018-10-18 09:02:12 PM96WO > PM96XO 8.7 miles 80° 2018-10-18 09:02:12
JI1LCY-10 8 2018-10-18 06:58:24 2018-10-18 07:16:24 PM96SA > PM95RU 11.5 miles 209° 2018-10-18 07:16:24
JA7DNO-10 9 2018-10-18 12:02:14 2018-10-18 12:39:44 QM08MH > QM08KH 9.1 miles 265° 2018-10-18 12:39:44
JQ1ZEG-10 1 2018-10-18 06:31:41 2018-10-18 06:31:41 PM95PN > PM95RN 8.5 miles 101° 2018-10-18 06:31:41
JL7OTC-10 1 2018-10-18 11:28:14 2018-10-18 11:28:14 QM07HX > QM08JB 10.1 miles 53° 2018-10-18 11:28:14
JE7YXV-10 13 2018-10-18 10:07:11 2018-10-18 11:20:14 QM07EM > QM07ES 16.9 miles 5° 2018-10-18 10:07:11
7L2IWN 1 2018-10-18 07:48:24 2018-10-18 07:48:24 PM96TH > PM95MW 39.7 miles 234° 2018-10-18 07:48:24
JE7ZDV-10 5 2018-10-18 09:55:07 2018-10-18 10:11:11 QM07EN > QM07EJ 10.7 miles 184° 2018-10-18 10:11:11
JI1SZR-10 5 2018-10-18 08:16:24 2018-10-18 08:40:06 PM96WO > QM06AN 9.7 miles 114° 2018-10-18 08:40:06
JM1MTE-1 7 2018-10-18 06:00:37 2018-10-18 06:20:21 PM95QL > PM95PK 5.2 miles 239° 2018-10-18 06:00:37
JQ1YWA-10 3 2018-10-18 06:41:36 2018-10-18 06:47:56 PM95PQ > PM95QR 4.8 miles 56° 2018-10-18 06:41:36

Only position packets which were originated by the station are shown here. The range statistics show some extra long hops, because some digipeaters do not correctly add themselves to the digipeater path. Please check the raw packets.
About this site
This page shows real-time information collected from the Automatic Position Reporting System Internet network (APRS-IS). APRS is used by amateur (ham) radio operators to transmit real-time position information, weather data, telemetry and messages over the radio. A vehicle equipped with a GPS receiver, a VHF transmitter or HF transceiver and a small computer device called a tracker transmits it's location, speed and course in a small data packet, which is then received by a nearby iGate receiving site which forwards the packet on the Internet. Systems connected to the Internet can send information on the APRS-IS without a radio transmitter, or collect and display information transmitted anywhere in the world.
FAQ · Blog · Discussion group · Linking to aprs.fi · AIS sites · Service status · Database statistics · Advertising on aprs.fi · Technical details · API · Change log · Planned changes · Credits and thanks · Terms Of Service · iPhone/iPad APRS